createdAt,value
2024-05-09T00:00:01.568Z,52.91
2024-05-09T00:05:29.958Z,53.06
2024-05-09T00:10:50.960Z,53.26
2024-05-09T00:16:11.986Z,53.80
2024-05-09T00:21:32.796Z,53.58
2024-05-09T00:26:53.484Z,53.68
2024-05-09T00:32:14.196Z,53.67
2024-05-09T00:37:34.653Z,53.52
2024-05-09T00:42:55.396Z,53.56
2024-05-09T00:48:19.736Z,53.53
2024-05-09T00:53:42.236Z,53.67
2024-05-09T00:59:03.071Z,53.56
2024-05-09T01:04:23.644Z,53.86
2024-05-09T01:09:44.075Z,53.78
2024-05-09T01:15:05.760Z,53.69
2024-05-09T01:20:37.034Z,53.72
2024-05-09T01:26:02.614Z,53.70
2024-05-09T01:31:23.174Z,53.77
2024-05-09T01:36:43.539Z,53.98
2024-05-09T01:42:09.471Z,53.74
2024-05-09T01:47:30.278Z,53.97
2024-05-09T01:52:51.151Z,53.92
2024-05-09T01:58:12.065Z,54.08
2024-05-09T02:03:32.966Z,54.39
2024-05-09T02:08:53.491Z,54.45
2024-05-09T02:14:14.001Z,54.60
2024-05-09T02:19:34.958Z,54.53
2024-05-09T02:24:55.362Z,54.52
2024-05-09T02:30:22.910Z,54.68
2024-05-09T02:35:51.096Z,53.27
2024-05-09T02:41:11.993Z,54.65
2024-05-09T02:46:32.554Z,54.88
2024-05-09T02:51:53.212Z,54.72
2024-05-09T02:57:13.629Z,55.04
2024-05-09T03:02:34.568Z,55.02
2024-05-09T03:07:55.061Z,54.92
2024-05-09T03:13:16.391Z,55.12
2024-05-09T03:18:37.278Z,54.98
2024-05-09T03:23:58.153Z,54.96
2024-05-09T03:29:19.052Z,55.12
2024-05-09T03:34:39.709Z,55.25
2024-05-09T03:40:07.349Z,55.31
2024-05-09T03:45:32.574Z,55.35
2024-05-09T03:50:53.255Z,55.52
2024-05-09T03:56:14.220Z,55.38
2024-05-09T04:01:34.689Z,55.50
2024-05-09T04:06:55.796Z,55.48
2024-05-09T04:12:16.715Z,55.70
2024-05-09T04:17:37.762Z,55.34
2024-05-09T04:22:58.534Z,55.41
2024-05-09T04:28:19.253Z,55.46
2024-05-09T04:33:40.099Z,55.45
2024-05-09T04:39:00.779Z,55.15
2024-05-09T04:44:21.426Z,55.26
2024-05-09T04:49:42.583Z,55.23
2024-05-09T04:55:03.420Z,55.24
2024-05-09T05:00:32.460Z,55.13
2024-05-09T05:05:57.130Z,55.30
2024-05-09T05:11:18.234Z,55.00
2024-05-09T05:16:38.529Z,55.16
2024-05-09T05:21:59.219Z,55.08
2024-05-09T05:27:19.836Z,55.25
2024-05-09T05:32:40.687Z,55.20
2024-05-09T05:38:01.567Z,55.12
2024-05-09T05:43:22.307Z,55.40
2024-05-09T05:48:42.993Z,55.29
2024-05-09T05:54:04.941Z,55.23
2024-05-09T05:59:28.050Z,55.56
2024-05-09T06:04:48.949Z,55.33
2024-05-09T06:10:17.197Z,55.28
2024-05-09T06:15:42.552Z,54.80
2024-05-09T06:21:03.528Z,54.96
2024-05-09T06:26:24.039Z,54.79
2024-05-09T06:31:44.879Z,54.81
2024-05-09T06:37:05.515Z,54.60
2024-05-09T06:42:26.295Z,55.13
2024-05-09T06:47:46.911Z,54.96
2024-05-09T06:53:08.601Z,55.11
2024-05-09T06:58:29.248Z,54.84
2024-05-09T07:03:49.813Z,54.83
2024-05-09T07:09:10.693Z,54.92
2024-05-09T07:14:32.766Z,54.97
2024-05-09T07:19:54.801Z,55.58
2024-05-09T07:25:15.422Z,55.76
2024-05-09T07:30:36.093Z,55.61
2024-05-09T07:35:57.048Z,55.83
2024-05-09T07:41:17.706Z,55.76
2024-05-09T07:47:47.299Z,55.64
2024-05-09T07:57:42.544Z,55.63
2024-05-09T08:03:04.022Z,55.72
2024-05-09T08:08:24.996Z,54.61
2024-05-09T08:13:46.176Z,55.35
2024-05-09T08:19:06.738Z,55.41
2024-05-09T08:24:27.200Z,55.34
2024-05-09T08:29:47.819Z,54.87
2024-05-09T08:35:08.480Z,54.18
2024-05-09T08:40:34.441Z,54.33
2024-05-09T08:45:59.131Z,54.27
2024-05-09T08:51:20.156Z,54.47
2024-05-09T08:56:45.937Z,54.45
2024-05-09T09:02:06.532Z,54.64
2024-05-09T09:07:28.729Z,54.49
2024-05-09T09:12:57.791Z,54.78
2024-05-09T09:18:18.655Z,54.31
2024-05-09T09:23:40.109Z,54.97
2024-05-09T09:29:04.414Z,54.63
2024-05-09T09:34:31.196Z,54.36
2024-05-09T09:39:53.206Z,54.55
2024-05-09T09:45:15.173Z,54.94
2024-05-09T09:50:36.156Z,54.72
2024-05-09T09:55:56.864Z,54.13
2024-05-09T10:01:17.408Z,54.31
2024-05-09T10:06:42.666Z,53.66
2024-05-09T10:12:12.132Z,50.98
2024-05-09T10:17:33.526Z,50.16
2024-05-09T10:22:54.225Z,51.67
2024-05-09T10:28:15.702Z,51.87
2024-05-09T10:33:51.870Z,51.47
2024-05-09T10:39:13.487Z,52.93
2024-05-09T10:44:37.911Z,52.46
2024-05-09T10:49:58.436Z,52.36
2024-05-09T10:55:19.295Z,52.85
2024-05-09T11:00:40.825Z,53.04
2024-05-09T11:06:02.478Z,53.18
2024-05-09T11:11:23.014Z,52.96
2024-05-09T11:16:43.561Z,51.99
2024-05-09T11:22:04.997Z,52.15
2024-05-09T11:27:25.788Z,51.02
2024-05-09T11:32:46.794Z,50.86
2024-05-09T11:38:07.580Z,50.81
2024-05-09T11:43:29.300Z,51.65
2024-05-09T11:48:50.449Z,52.74
2024-05-09T11:54:10.897Z,52.69
2024-05-09T11:59:31.643Z,53.00
2024-05-09T12:04:52.418Z,54.08
2024-05-09T12:10:16.849Z,54.74
2024-05-09T12:15:40.331Z,54.62
2024-05-09T12:21:01.855Z,55.06
2024-05-09T12:26:22.236Z,54.64
2024-05-09T12:31:43.033Z,54.47
2024-05-09T12:37:04.159Z,55.81
2024-05-09T12:42:27.487Z,55.62
2024-05-09T12:47:49.705Z,56.07
2024-05-09T12:53:10.908Z,56.32
2024-05-09T12:58:31.700Z,57.20
2024-05-09T13:03:52.337Z,57.86
2024-05-09T13:09:12.708Z,58.59
2024-05-09T13:14:33.200Z,59.06
2024-05-09T13:19:53.724Z,59.04
2024-05-09T13:25:14.870Z,58.92
2024-05-09T13:30:40.301Z,59.07
2024-05-09T13:36:02.484Z,58.57
2024-05-09T13:41:22.815Z,57.69
2024-05-09T13:46:43.634Z,58.21
2024-05-09T13:52:04.808Z,58.88
2024-05-09T13:57:25.805Z,58.83
2024-05-09T14:02:46.980Z,59.09
2024-05-09T14:08:08.637Z,59.23
2024-05-09T14:13:29.004Z,58.78
2024-05-09T14:18:50.227Z,58.77
2024-05-09T14:24:10.845Z,58.55
2024-05-09T14:29:33.627Z,58.12
2024-05-09T14:34:54.460Z,57.62
2024-05-09T14:40:30.414Z,57.38
2024-05-09T14:45:56.565Z,57.54
2024-05-09T14:51:17.502Z,57.52
2024-05-09T14:56:38.091Z,57.39
2024-05-09T15:01:58.800Z,57.63
2024-05-09T15:07:19.287Z,57.74
2024-05-09T15:12:39.877Z,57.68
2024-05-09T15:18:00.763Z,58.05
2024-05-09T15:23:21.082Z,58.26
2024-05-09T15:28:41.696Z,58.63
2024-05-09T15:34:02.185Z,58.45
2024-05-09T15:39:25.217Z,58.56
2024-05-09T15:44:52.389Z,58.41
2024-05-09T15:50:20.302Z,58.73
2024-05-09T15:55:48.567Z,59.39
2024-05-09T16:01:09.004Z,59.28
2024-05-09T16:06:29.633Z,58.83
2024-05-09T16:11:50.290Z,58.80
2024-05-09T16:17:11.145Z,58.74
2024-05-09T16:22:31.976Z,58.70
2024-05-09T16:27:52.681Z,58.88
2024-05-09T16:33:13.661Z,59.20
2024-05-09T16:38:34.598Z,59.43
2024-05-09T16:43:55.475Z,59.84
2024-05-09T16:49:16.036Z,60.08
2024-05-09T16:54:36.581Z,60.35
2024-05-09T16:59:57.054Z,60.99
2024-05-09T17:05:18.153Z,61.16
2024-05-09T17:10:38.689Z,60.99
2024-05-09T17:15:59.717Z,60.90
2024-05-09T17:21:19.987Z,60.78
2024-05-09T17:26:41.761Z,60.83
2024-05-09T17:32:02.427Z,60.67
2024-05-09T17:37:23.356Z,60.77
2024-05-09T17:42:44.410Z,60.86
2024-05-09T17:48:05.644Z,60.72
2024-05-09T17:53:26.791Z,60.89
2024-05-09T17:58:48.872Z,60.64
2024-05-09T18:04:10.174Z,60.30
2024-05-09T18:09:30.767Z,60.38
2024-05-09T18:14:51.832Z,59.78
2024-05-09T18:20:19.688Z,59.46
2024-05-09T18:25:48.676Z,59.70
2024-05-09T18:31:09.270Z,59.80
2024-05-09T18:36:30.141Z,60.34
2024-05-09T18:41:50.809Z,60.39
2024-05-09T18:47:11.464Z,60.56
2024-05-09T18:52:32.462Z,61.27
2024-05-09T18:57:53.111Z,61.36
2024-05-09T19:03:14.874Z,61.47
2024-05-09T19:08:36.236Z,61.48
2024-05-09T19:14:03.497Z,61.26
2024-05-09T19:19:24.121Z,61.25
2024-05-09T19:24:44.774Z,61.11
2024-05-09T19:30:13.887Z,61.24
2024-05-09T19:35:38.845Z,61.15
2024-05-09T19:41:00.055Z,61.22
2024-05-09T19:46:20.687Z,61.31
2024-05-09T19:51:41.375Z,61.26
2024-05-09T19:57:01.999Z,61.59
2024-05-09T20:02:22.836Z,61.64
2024-05-09T20:07:43.411Z,61.90
2024-05-09T20:13:06.666Z,61.77
2024-05-09T20:18:28.700Z,61.49
2024-05-09T20:23:49.441Z,61.42
2024-05-09T20:29:10.038Z,61.22
2024-05-09T20:34:30.799Z,61.25
2024-05-09T20:39:51.517Z,61.55
2024-05-09T20:45:13.598Z,61.91
2024-05-09T20:50:39.522Z,62.30
2024-05-09T20:56:02.611Z,62.45
2024-05-09T21:01:23.361Z,62.65
2024-05-09T21:06:44.352Z,62.85
2024-05-09T21:12:05.346Z,62.81
2024-05-09T21:17:26.207Z,62.91
2024-05-09T21:22:46.694Z,62.87
2024-05-09T21:28:07.395Z,63.11
2024-05-09T21:33:28.199Z,63.08
2024-05-09T21:38:48.877Z,63.06
2024-05-09T21:44:09.243Z,63.10
2024-05-09T21:49:30.157Z,63.22
2024-05-09T21:54:50.773Z,63.24
2024-05-09T22:00:27.961Z,63.48
2024-05-09T22:05:55.444Z,63.15
2024-05-09T22:11:16.099Z,63.48
2024-05-09T22:16:41.047Z,64.07
2024-05-09T22:22:01.563Z,63.91
2024-05-09T22:27:22.409Z,63.83
2024-05-09T22:32:43.155Z,63.97
2024-05-09T22:38:09.684Z,63.78
2024-05-09T22:43:30.533Z,64.03
2024-05-09T22:48:51.229Z,63.61
2024-05-09T22:54:12.234Z,63.70
2024-05-09T22:59:32.592Z,63.92
2024-05-09T23:04:53.138Z,64.17
2024-05-09T23:10:20.944Z,64.61
2024-05-09T23:15:48.210Z,64.37
2024-05-09T23:21:08.825Z,64.31
2024-05-09T23:26:29.410Z,64.63
2024-05-09T23:31:50.166Z,64.67
2024-05-09T23:37:10.927Z,64.97
2024-05-09T23:42:31.512Z,64.97
2024-05-09T23:47:53.141Z,64.90
2024-05-09T23:53:14.413Z,64.71
2024-05-09T23:58:34.741Z,65.13
